sensor_id;sensor_type;location;lat;lon;timestamp;P1;durP1;ratioP1;P2;durP2;ratioP2
17570;SDS011;8903;52.220;20.978;2023-06-14T00:00:45;9.03;;;8.10;;
17570;SDS011;8903;52.220;20.978;2023-06-14T00:03:13;11.40;;;8.17;;
17570;SDS011;8903;52.220;20.978;2023-06-14T00:05:43;9.60;;;8.47;;
17570;SDS011;8903;52.220;20.978;2023-06-14T00:08:11;9.20;;;7.93;;
17570;SDS011;8903;52.220;20.978;2023-06-14T00:10:40;8.80;;;8.00;;
17570;SDS011;8903;52.220;20.978;2023-06-14T00:13:07;8.63;;;7.83;;
17570;SDS011;8903;52.220;20.978;2023-06-14T00:15:34;12.60;;;7.93;;
17570;SDS011;8903;52.220;20.978;2023-06-14T00:18:02;11.90;;;7.50;;
17570;SDS011;8903;52.220;20.978;2023-06-14T00:20:30;10.90;;;7.53;;
17570;SDS011;8903;52.220;20.978;2023-06-14T00:22:58;9.33;;;7.50;;
17570;SDS011;8903;52.220;20.978;2023-06-14T00:25:25;9.67;;;7.77;;
17570;SDS011;8903;52.220;20.978;2023-06-14T00:27:54;8.50;;;7.60;;
17570;SDS011;8903;52.220;20.978;2023-06-14T00:30:21;8.20;;;7.40;;
17570;SDS011;8903;52.220;20.978;2023-06-14T00:32:49;8.50;;;7.53;;
17570;SDS011;8903;52.220;20.978;2023-06-14T00:35:16;9.43;;;7.10;;
17570;SDS011;8903;52.220;20.978;2023-06-14T00:37:43;9.47;;;8.57;;
17570;SDS011;8903;52.220;20.978;2023-06-14T00:40:10;11.00;;;7.77;;
17570;SDS011;8903;52.220;20.978;2023-06-14T00:42:37;8.80;;;8.00;;
17570;SDS011;8903;52.220;20.978;2023-06-14T00:45:06;8.63;;;7.73;;
17570;SDS011;8903;52.220;20.978;2023-06-14T00:47:34;9.70;;;7.87;;
17570;SDS011;8903;52.220;20.978;2023-06-14T00:50:05;8.80;;;7.93;;
17570;SDS011;8903;52.220;20.978;2023-06-14T00:52:35;8.83;;;7.23;;
17570;SDS011;8903;52.220;20.978;2023-06-14T00:55:02;8.40;;;7.60;;
17570;SDS011;8903;52.220;20.978;2023-06-14T00:57:29;9.47;;;8.57;;
17570;SDS011;8903;52.220;20.978;2023-06-14T00:59:57;10.17;;;9.27;;
17570;SDS011;8903;52.220;20.978;2023-06-14T01:02:25;10.03;;;8.60;;
17570;SDS011;8903;52.220;20.978;2023-06-14T01:04:52;10.70;;;9.30;;
17570;SDS011;8903;52.220;20.978;2023-06-14T01:07:25;10.97;;;9.97;;
17570;SDS011;8903;52.220;20.978;2023-06-14T01:10:09;9.20;;;8.30;;
17570;SDS011;8903;52.220;20.978;2023-06-14T01:12:48;10.07;;;9.07;;
17570;SDS011;8903;52.220;20.978;2023-06-14T01:15:22;11.83;;;9.10;;
17570;SDS011;8903;52.220;20.978;2023-06-14T01:17:51;11.83;;;9.70;;
17570;SDS011;8903;52.220;20.978;2023-06-14T01:20:19;10.10;;;9.03;;
17570;SDS011;8903;52.220;20.978;2023-06-14T01:22:52;14.93;;;8.90;;
17570;SDS011;8903;52.220;20.978;2023-06-14T01:25:20;12.60;;;10.67;;
17570;SDS011;8903;52.220;20.978;2023-06-14T01:27:48;11.00;;;10.00;;
17570;SDS011;8903;52.220;20.978;2023-06-14T01:30:17;11.30;;;9.73;;
17570;SDS011;8903;52.220;20.978;2023-06-14T01:32:45;14.90;;;10.90;;
17570;SDS011;8903;52.220;20.978;2023-06-14T01:35:13;11.20;;;10.10;;
17570;SDS011;8903;52.220;20.978;2023-06-14T01:37:40;13.00;;;9.60;;
17570;SDS011;8903;52.220;20.978;2023-06-14T01:40:11;10.73;;;9.53;;
17570;SDS011;8903;52.220;20.978;2023-06-14T01:42:38;10.47;;;9.47;;
17570;SDS011;8903;52.220;20.978;2023-06-14T01:45:09;11.30;;;9.10;;
17570;SDS011;8903;52.220;20.978;2023-06-14T01:47:36;8.60;;;7.70;;
17570;SDS011;8903;52.220;20.978;2023-06-14T01:50:03;8.77;;;7.83;;
17570;SDS011;8903;52.220;20.978;2023-06-14T01:52:31;10.87;;;9.20;;
17570;SDS011;8903;52.220;20.978;2023-06-14T01:54:58;9.10;;;8.20;;
17570;SDS011;8903;52.220;20.978;2023-06-14T01:57:28;9.40;;;8.50;;
17570;SDS011;8903;52.220;20.978;2023-06-14T01:59:55;10.40;;;8.17;;
17570;SDS011;8903;52.220;20.978;2023-06-14T02:02:25;8.67;;;7.80;;
17570;SDS011;8903;52.220;20.978;2023-06-14T02:04:52;8.70;;;7.80;;
17570;SDS011;8903;52.220;20.978;2023-06-14T02:07:22;9.97;;;8.87;;
17570;SDS011;8903;52.220;20.978;2023-06-14T02:09:50;9.93;;;8.93;;
17570;SDS011;8903;52.220;20.978;2023-06-14T02:12:17;9.27;;;8.30;;
17570;SDS011;8903;52.220;20.978;2023-06-14T02:14:46;9.40;;;7.97;;
17570;SDS011;8903;52.220;20.978;2023-06-14T02:17:13;9.07;;;8.03;;
17570;SDS011;8903;52.220;20.978;2023-06-14T02:19:41;9.87;;;8.33;;
17570;SDS011;8903;52.220;20.978;2023-06-14T02:22:08;14.37;;;12.00;;
17570;SDS011;8903;52.220;20.978;2023-06-14T02:24:35;9.00;;;8.20;;
17570;SDS011;8903;52.220;20.978;2023-06-14T02:27:07;7.27;;;6.50;;
17570;SDS011;8903;52.220;20.978;2023-06-14T02:29:35;11.47;;;7.53;;
17570;SDS011;8903;52.220;20.978;2023-06-14T02:32:04;8.20;;;7.30;;
17570;SDS011;8903;52.220;20.978;2023-06-14T02:34:33;11.53;;;7.90;;
17570;SDS011;8903;52.220;20.978;2023-06-14T02:37:00;8.67;;;7.13;;
17570;SDS011;8903;52.220;20.978;2023-06-14T02:39:28;9.20;;;7.97;;
17570;SDS011;8903;52.220;20.978;2023-06-14T02:41:55;7.60;;;6.60;;
17570;SDS011;8903;52.220;20.978;2023-06-14T02:44:24;10.20;;;7.20;;
17570;SDS011;8903;52.220;20.978;2023-06-14T02:46:52;10.83;;;7.40;;
17570;SDS011;8903;52.220;20.978;2023-06-14T02:49:21;7.90;;;7.03;;
17570;SDS011;8903;52.220;20.978;2023-06-14T02:51:49;7.33;;;6.67;;
17570;SDS011;8903;52.220;20.978;2023-06-14T02:54:16;9.93;;;7.27;;
17570;SDS011;8903;52.220;20.978;2023-06-14T02:56:43;7.93;;;7.23;;
17570;SDS011;8903;52.220;20.978;2023-06-14T02:59:10;8.87;;;7.30;;
17570;SDS011;8903;52.220;20.978;2023-06-14T03:01:39;10.30;;;7.50;;
17570;SDS011;8903;52.220;20.978;2023-06-14T03:04:08;8.40;;;7.70;;
17570;SDS011;8903;52.220;20.978;2023-06-14T03:06:40;8.50;;;7.20;;
17570;SDS011;8903;52.220;20.978;2023-06-14T03:09:10;7.80;;;7.00;;
17570;SDS011;8903;52.220;20.978;2023-06-14T03:11:39;8.97;;;7.27;;
17570;SDS011;8903;52.220;20.978;2023-06-14T03:14:06;8.60;;;7.80;;
17570;SDS011;8903;52.220;20.978;2023-06-14T03:16:35;8.73;;;7.83;;
17570;SDS011;8903;52.220;20.978;2023-06-14T03:19:03;10.80;;;9.67;;
17570;SDS011;8903;52.220;20.978;2023-06-14T03:21:31;9.43;;;8.40;;
17570;SDS011;8903;52.220;20.978;2023-06-14T03:24:03;14.23;;;7.37;;
17570;SDS011;8903;52.220;20.978;2023-06-14T03:26:32;8.20;;;7.40;;
17570;SDS011;8903;52.220;20.978;2023-06-14T03:28:59;11.10;;;8.70;;
17570;SDS011;8903;52.220;20.978;2023-06-14T03:31:28;6.83;;;6.23;;
17570;SDS011;8903;52.220;20.978;2023-06-14T03:33:59;7.77;;;6.73;;
17570;SDS011;8903;52.220;20.978;2023-06-14T03:36:27;7.53;;;6.00;;
17570;SDS011;8903;52.220;20.978;2023-06-14T03:38:54;7.60;;;6.90;;
17570;SDS011;8903;52.220;20.978;2023-06-14T03:41:22;9.50;;;7.37;;
17570;SDS011;8903;52.220;20.978;2023-06-14T03:43:50;9.13;;;6.83;;
17570;SDS011;8903;52.220;20.978;2023-06-14T03:46:17;7.37;;;6.67;;
17570;SDS011;8903;52.220;20.978;2023-06-14T03:48:44;7.73;;;6.90;;
17570;SDS011;8903;52.220;20.978;2023-06-14T03:51:12;8.23;;;7.20;;
17570;SDS011;8903;52.220;20.978;2023-06-14T03:53:39;8.10;;;6.90;;
17570;SDS011;8903;52.220;20.978;2023-06-14T03:56:06;8.20;;;7.40;;
17570;SDS011;8903;52.220;20.978;2023-06-14T03:58:41;7.77;;;6.93;;
17570;SDS011;8903;52.220;20.978;2023-06-14T04:01:09;9.77;;;8.00;;
17570;SDS011;8903;52.220;20.978;2023-06-14T04:03:37;7.43;;;6.67;;
17570;SDS011;8903;52.220;20.978;2023-06-14T04:06:05;7.33;;;6.37;;
17570;SDS011;8903;52.220;20.978;2023-06-14T04:08:33;6.73;;;6.23;;
17570;SDS011;8903;52.220;20.978;2023-06-14T04:11:00;7.47;;;6.80;;
17570;SDS011;8903;52.220;20.978;2023-06-14T04:13:27;7.50;;;6.80;;
17570;SDS011;8903;52.220;20.978;2023-06-14T04:15:56;10.87;;;6.77;;
17570;SDS011;8903;52.220;20.978;2023-06-14T04:18:27;7.03;;;6.40;;
17570;SDS011;8903;52.220;20.978;2023-06-14T04:20:55;8.63;;;7.73;;
17570;SDS011;8903;52.220;20.978;2023-06-14T04:23:22;7.57;;;6.87;;
17570;SDS011;8903;52.220;20.978;2023-06-14T04:25:49;8.40;;;7.17;;
17570;SDS011;8903;52.220;20.978;2023-06-14T04:28:17;9.13;;;6.50;;
17570;SDS011;8903;52.220;20.978;2023-06-14T04:30:45;7.97;;;6.70;;
17570;SDS011;8903;52.220;20.978;2023-06-14T04:33:16;7.00;;;6.27;;
17570;SDS011;8903;52.220;20.978;2023-06-14T04:35:43;9.63;;;6.70;;
17570;SDS011;8903;52.220;20.978;2023-06-14T04:38:13;7.37;;;6.57;;
17570;SDS011;8903;52.220;20.978;2023-06-14T04:40:41;8.33;;;7.43;;
17570;SDS011;8903;52.220;20.978;2023-06-14T04:43:10;7.90;;;7.10;;
17570;SDS011;8903;52.220;20.978;2023-06-14T04:45:40;8.13;;;6.83;;
17570;SDS011;8903;52.220;20.978;2023-06-14T04:48:11;9.47;;;7.90;;
17570;SDS011;8903;52.220;20.978;2023-06-14T04:50:40;9.20;;;7.07;;
17570;SDS011;8903;52.220;20.978;2023-06-14T04:53:09;10.60;;;6.80;;
17570;SDS011;8903;52.220;20.978;2023-06-14T04:55:36;10.80;;;7.30;;
17570;SDS011;8903;52.220;20.978;2023-06-14T04:58:04;8.00;;;7.30;;
17570;SDS011;8903;52.220;20.978;2023-06-14T05:00:31;7.90;;;7.20;;
17570;SDS011;8903;52.220;20.978;2023-06-14T05:02:58;18.03;;;7.40;;
17570;SDS011;8903;52.220;20.978;2023-06-14T05:05:26;7.50;;;6.80;;
17570;SDS011;8903;52.220;20.978;2023-06-14T05:07:55;7.93;;;7.17;;
17570;SDS011;8903;52.220;20.978;2023-06-14T05:10:22;13.43;;;8.10;;
17570;SDS011;8903;52.220;20.978;2023-06-14T05:12:49;7.60;;;6.90;;
17570;SDS011;8903;52.220;20.978;2023-06-14T05:15:18;8.33;;;6.50;;
17570;SDS011;8903;52.220;20.978;2023-06-14T05:17:45;15.17;;;7.80;;
17570;SDS011;8903;52.220;20.978;2023-06-14T05:20:18;7.60;;;6.90;;
17570;SDS011;8903;52.220;20.978;2023-06-14T05:22:45;11.70;;;8.43;;
17570;SDS011;8903;52.220;20.978;2023-06-14T05:25:15;12.43;;;7.50;;
17570;SDS011;8903;52.220;20.978;2023-06-14T05:27:42;12.47;;;7.63;;
17570;SDS011;8903;52.220;20.978;2023-06-14T05:30:09;8.57;;;7.77;;
17570;SDS011;8903;52.220;20.978;2023-06-14T05:32:37;17.17;;;7.70;;
17570;SDS011;8903;52.220;20.978;2023-06-14T05:35:04;13.17;;;7.23;;
17570;SDS011;8903;52.220;20.978;2023-06-14T05:37:32;8.57;;;7.17;;
17570;SDS011;8903;52.220;20.978;2023-06-14T05:39:59;9.87;;;8.07;;
17570;SDS011;8903;52.220;20.978;2023-06-14T05:42:27;12.43;;;8.13;;
17570;SDS011;8903;52.220;20.978;2023-06-14T05:44:54;10.53;;;7.80;;
17570;SDS011;8903;52.220;20.978;2023-06-14T05:47:21;12.50;;;8.53;;
17570;SDS011;8903;52.220;20.978;2023-06-14T05:49:48;9.77;;;7.30;;
17570;SDS011;8903;52.220;20.978;2023-06-14T05:52:15;12.37;;;8.37;;
17570;SDS011;8903;52.220;20.978;2023-06-14T05:54:42;12.07;;;7.63;;
17570;SDS011;8903;52.220;20.978;2023-06-14T05:57:10;9.87;;;8.90;;
17570;SDS011;8903;52.220;20.978;2023-06-14T05:59:38;8.87;;;8.07;;
17570;SDS011;8903;52.220;20.978;2023-06-14T06:02:05;9.00;;;7.93;;
17570;SDS011;8903;52.220;20.978;2023-06-14T06:04:32;11.13;;;8.70;;
17570;SDS011;8903;52.220;20.978;2023-06-14T06:06:59;12.13;;;7.93;;
17570;SDS011;8903;52.220;20.978;2023-06-14T06:09:26;9.43;;;7.90;;
17570;SDS011;8903;52.220;20.978;2023-06-14T06:11:53;9.60;;;7.63;;
17570;SDS011;8903;52.220;20.978;2023-06-14T06:14:20;10.47;;;7.67;;
17570;SDS011;8903;52.220;20.978;2023-06-14T06:16:48;11.70;;;8.30;;
17570;SDS011;8903;52.220;20.978;2023-06-14T06:19:17;9.83;;;7.50;;
17570;SDS011;8903;52.220;20.978;2023-06-14T06:21:44;10.60;;;7.37;;
17570;SDS011;8903;52.220;20.978;2023-06-14T06:24:11;8.67;;;7.47;;
17570;SDS011;8903;52.220;20.978;2023-06-14T06:26:38;9.53;;;7.60;;
17570;SDS011;8903;52.220;20.978;2023-06-14T06:29:06;9.07;;;7.33;;
17570;SDS011;8903;52.220;20.978;2023-06-14T06:31:33;7.97;;;7.17;;
17570;SDS011;8903;52.220;20.978;2023-06-14T06:34:01;9.60;;;7.60;;
17570;SDS011;8903;52.220;20.978;2023-06-14T06:36:28;7.90;;;7.20;;
17570;SDS011;8903;52.220;20.978;2023-06-14T06:38:55;9.37;;;8.53;;
17570;SDS011;8903;52.220;20.978;2023-06-14T06:41:22;10.60;;;8.17;;
17570;SDS011;8903;52.220;20.978;2023-06-14T06:43:49;11.53;;;7.47;;
17570;SDS011;8903;52.220;20.978;2023-06-14T06:46:16;11.80;;;7.93;;
17570;SDS011;8903;52.220;20.978;2023-06-14T06:48:44;13.00;;;8.70;;
17570;SDS011;8903;52.220;20.978;2023-06-14T06:51:12;11.93;;;7.10;;
17570;SDS011;8903;52.220;20.978;2023-06-14T06:53:41;7.20;;;6.20;;
17570;SDS011;8903;52.220;20.978;2023-06-14T06:56:09;10.57;;;6.90;;
17570;SDS011;8903;52.220;20.978;2023-06-14T06:58:36;12.43;;;8.03;;
17570;SDS011;8903;52.220;20.978;2023-06-14T07:01:03;8.63;;;7.73;;
17570;SDS011;8903;52.220;20.978;2023-06-14T07:03:30;11.13;;;8.50;;
17570;SDS011;8903;52.220;20.978;2023-06-14T07:05:57;11.10;;;7.60;;
17570;SDS011;8903;52.220;20.978;2023-06-14T07:08:26;8.67;;;7.87;;
17570;SDS011;8903;52.220;20.978;2023-06-14T07:10:53;14.47;;;8.73;;
17570;SDS011;8903;52.220;20.978;2023-06-14T07:13:20;11.93;;;9.10;;
17570;SDS011;8903;52.220;20.978;2023-06-14T07:15:47;10.40;;;8.80;;
17570;SDS011;8903;52.220;20.978;2023-06-14T07:18:14;10.20;;;9.13;;
17570;SDS011;8903;52.220;20.978;2023-06-14T07:20:41;10.27;;;8.93;;
17570;SDS011;8903;52.220;20.978;2023-06-14T07:23:09;9.07;;;8.13;;
17570;SDS011;8903;52.220;20.978;2023-06-14T07:25:37;9.23;;;8.07;;
17570;SDS011;8903;52.220;20.978;2023-06-14T07:28:04;11.70;;;8.10;;
17570;SDS011;8903;52.220;20.978;2023-06-14T07:30:31;9.30;;;8.30;;
17570;SDS011;8903;52.220;20.978;2023-06-14T07:32:58;14.10;;;9.50;;
17570;SDS011;8903;52.220;20.978;2023-06-14T07:35:25;13.43;;;7.70;;
17570;SDS011;8903;52.220;20.978;2023-06-14T07:37:52;14.00;;;8.10;;
17570;SDS011;8903;52.220;20.978;2023-06-14T07:40:19;11.37;;;7.60;;
17570;SDS011;8903;52.220;20.978;2023-06-14T07:42:48;9.77;;;7.67;;
17570;SDS011;8903;52.220;20.978;2023-06-14T07:45:15;10.10;;;8.20;;
17570;SDS011;8903;52.220;20.978;2023-06-14T07:47:43;9.63;;;7.03;;
17570;SDS011;8903;52.220;20.978;2023-06-14T07:50:10;12.57;;;6.50;;
17570;SDS011;8903;52.220;20.978;2023-06-14T07:52:38;11.43;;;7.10;;
17570;SDS011;8903;52.220;20.978;2023-06-14T07:55:05;7.80;;;6.67;;
17570;SDS011;8903;52.220;20.978;2023-06-14T07:57:33;8.20;;;6.40;;
17570;SDS011;8903;52.220;20.978;2023-06-14T08:00:01;12.80;;;7.40;;
17570;SDS011;8903;52.220;20.978;2023-06-14T08:02:37;11.57;;;7.77;;
17570;SDS011;8903;52.220;20.978;2023-06-14T08:05:04;14.37;;;6.90;;
17570;SDS011;8903;52.220;20.978;2023-06-14T08:07:31;11.07;;;7.80;;
17570;SDS011;8903;52.220;20.978;2023-06-14T08:09:58;10.03;;;6.50;;
17570;SDS011;8903;52.220;20.978;2023-06-14T08:12:26;7.63;;;6.07;;
17570;SDS011;8903;52.220;20.978;2023-06-14T08:14:52;8.10;;;6.93;;
17570;SDS011;8903;52.220;20.978;2023-06-14T08:17:21;11.13;;;6.60;;
17570;SDS011;8903;52.220;20.978;2023-06-14T08:19:48;10.47;;;5.47;;
17570;SDS011;8903;52.220;20.978;2023-06-14T08:22:15;5.70;;;5.10;;
17570;SDS011;8903;52.220;20.978;2023-06-14T08:24:43;10.23;;;5.47;;
17570;SDS011;8903;52.220;20.978;2023-06-14T08:27:10;7.90;;;5.53;;
17570;SDS011;8903;52.220;20.978;2023-06-14T08:29:38;6.80;;;6.03;;
17570;SDS011;8903;52.220;20.978;2023-06-14T08:32:06;7.17;;;6.47;;
17570;SDS011;8903;52.220;20.978;2023-06-14T08:34:35;9.23;;;5.80;;
17570;SDS011;8903;52.220;20.978;2023-06-14T08:37:02;10.63;;;6.70;;
17570;SDS011;8903;52.220;20.978;2023-06-14T08:39:30;13.70;;;7.47;;
17570;SDS011;8903;52.220;20.978;2023-06-14T08:41:57;7.20;;;5.27;;
17570;SDS011;8903;52.220;20.978;2023-06-14T08:44:27;9.70;;;7.20;;
17570;SDS011;8903;52.220;20.978;2023-06-14T08:46:54;8.73;;;6.30;;
17570;SDS011;8903;52.220;20.978;2023-06-14T08:49:23;11.40;;;7.37;;
17570;SDS011;8903;52.220;20.978;2023-06-14T08:51:54;8.80;;;6.90;;
17570;SDS011;8903;52.220;20.978;2023-06-14T08:54:25;13.30;;;7.07;;
17570;SDS011;8903;52.220;20.978;2023-06-14T08:56:55;13.30;;;7.47;;
17570;SDS011;8903;52.220;20.978;2023-06-14T08:59:23;9.97;;;8.10;;
17570;SDS011;8903;52.220;20.978;2023-06-14T09:01:52;9.37;;;8.23;;
17570;SDS011;8903;52.220;20.978;2023-06-14T09:04:20;9.43;;;7.40;;
17570;SDS011;8903;52.220;20.978;2023-06-14T09:06:48;7.60;;;6.80;;
17570;SDS011;8903;52.220;20.978;2023-06-14T09:09:19;7.57;;;6.70;;
17570;SDS011;8903;52.220;20.978;2023-06-14T09:11:48;12.17;;;7.00;;
17570;SDS011;8903;52.220;20.978;2023-06-14T09:14:15;8.23;;;7.00;;
17570;SDS011;8903;52.220;20.978;2023-06-14T09:16:44;13.47;;;8.40;;
17570;SDS011;8903;52.220;20.978;2023-06-14T09:19:13;7.73;;;6.93;;
17570;SDS011;8903;52.220;20.978;2023-06-14T09:21:47;8.20;;;7.20;;
17570;SDS011;8903;52.220;20.978;2023-06-14T09:24:14;12.80;;;8.07;;
17570;SDS011;8903;52.220;20.978;2023-06-14T09:26:43;11.53;;;7.20;;
17570;SDS011;8903;52.220;20.978;2023-06-14T09:29:13;8.30;;;7.50;;
17570;SDS011;8903;52.220;20.978;2023-06-14T09:31:40;12.63;;;8.67;;
17570;SDS011;8903;52.220;20.978;2023-06-14T09:34:07;11.33;;;7.87;;
17570;SDS011;8903;52.220;20.978;2023-06-14T09:36:35;10.10;;;8.50;;
17570;SDS011;8903;52.220;20.978;2023-06-14T09:39:03;7.77;;;6.97;;
17570;SDS011;8903;52.220;20.978;2023-06-14T09:41:31;11.83;;;7.43;;
17570;SDS011;8903;52.220;20.978;2023-06-14T09:44:00;11.53;;;7.13;;
17570;SDS011;8903;52.220;20.978;2023-06-14T09:46:28;9.20;;;7.20;;
17570;SDS011;8903;52.220;20.978;2023-06-14T09:48:56;7.60;;;6.53;;
17570;SDS011;8903;52.220;20.978;2023-06-14T09:51:24;9.53;;;7.60;;
17570;SDS011;8903;52.220;20.978;2023-06-14T09:53:53;10.10;;;6.87;;
17570;SDS011;8903;52.220;20.978;2023-06-14T09:56:26;6.10;;;5.53;;
17570;SDS011;8903;52.220;20.978;2023-06-14T09:58:56;11.90;;;5.57;;
17570;SDS011;8903;52.220;20.978;2023-06-14T10:01:25;15.00;;;6.43;;
17570;SDS011;8903;52.220;20.978;2023-06-14T10:03:55;8.33;;;5.43;;
17570;SDS011;8903;52.220;20.978;2023-06-14T10:06:27;6.60;;;4.90;;
17570;SDS011;8903;52.220;20.978;2023-06-14T10:08:56;7.47;;;5.80;;
17570;SDS011;8903;52.220;20.978;2023-06-14T10:11:25;7.20;;;5.77;;
17570;SDS011;8903;52.220;20.978;2023-06-14T10:13:52;6.27;;;5.67;;
17570;SDS011;8903;52.220;20.978;2023-06-14T10:16:22;12.93;;;7.30;;
17570;SDS011;8903;52.220;20.978;2023-06-14T10:18:58;10.07;;;6.33;;
17570;SDS011;8903;52.220;20.978;2023-06-14T10:21:35;11.83;;;6.50;;
17570;SDS011;8903;52.220;20.978;2023-06-14T10:24:08;4.27;;;3.93;;
17570;SDS011;8903;52.220;20.978;2023-06-14T10:26:49;5.77;;;4.83;;
17570;SDS011;8903;52.220;20.978;2023-06-14T10:29:17;4.50;;;4.10;;
17570;SDS011;8903;52.220;20.978;2023-06-14T10:31:45;5.13;;;4.63;;
17570;SDS011;8903;52.220;20.978;2023-06-14T10:34:22;8.23;;;5.00;;
17570;SDS011;8903;52.220;20.978;2023-06-14T10:36:59;12.10;;;5.27;;
17570;SDS011;8903;52.220;20.978;2023-06-14T10:39:28;12.73;;;4.73;;
17570;SDS011;8903;52.220;20.978;2023-06-14T10:41:56;8.37;;;5.63;;
17570;SDS011;8903;52.220;20.978;2023-06-14T10:44:30;6.43;;;4.57;;
17570;SDS011;8903;52.220;20.978;2023-06-14T10:47:06;6.90;;;5.00;;
17570;SDS011;8903;52.220;20.978;2023-06-14T10:49:40;6.47;;;4.50;;
17570;SDS011;8903;52.220;20.978;2023-06-14T10:52:08;5.63;;;4.40;;
17570;SDS011;8903;52.220;20.978;2023-06-14T10:55:03;8.30;;;5.13;;
17570;SDS011;8903;52.220;20.978;2023-06-14T10:57:38;9.13;;;4.77;;
17570;SDS011;8903;52.220;20.978;2023-06-14T11:00:06;5.30;;;4.80;;
17570;SDS011;8903;52.220;20.978;2023-06-14T11:06:16;7.23;;;3.67;;
17570;SDS011;8903;52.220;20.978;2023-06-14T11:08:55;5.03;;;4.63;;
17570;SDS011;8903;52.220;20.978;2023-06-14T11:11:38;6.37;;;4.27;;
17570;SDS011;8903;52.220;20.978;2023-06-14T11:14:09;10.50;;;4.67;;
17570;SDS011;8903;52.220;20.978;2023-06-14T11:16:36;5.40;;;4.90;;
17570;SDS011;8903;52.220;20.978;2023-06-14T11:19:03;7.33;;;5.10;;
17570;SDS011;8903;52.220;20.978;2023-06-14T11:21:33;5.37;;;4.87;;
17570;SDS011;8903;52.220;20.978;2023-06-14T11:24:00;5.90;;;4.23;;
17570;SDS011;8903;52.220;20.978;2023-06-14T11:26:27;10.23;;;6.00;;
17570;SDS011;8903;52.220;20.978;2023-06-14T11:28:56;10.83;;;5.20;;
17570;SDS011;8903;52.220;20.978;2023-06-14T11:31:23;7.73;;;5.00;;
17570;SDS011;8903;52.220;20.978;2023-06-14T11:33:50;5.47;;;4.27;;
17570;SDS011;8903;52.220;20.978;2023-06-14T11:36:19;7.60;;;5.17;;
17570;SDS011;8903;52.220;20.978;2023-06-14T11:38:47;8.60;;;4.10;;
17570;SDS011;8903;52.220;20.978;2023-06-14T11:41:14;8.87;;;5.07;;
17570;SDS011;8903;52.220;20.978;2023-06-14T11:43:41;7.73;;;4.40;;
17570;SDS011;8903;52.220;20.978;2023-06-14T11:46:12;3.93;;;3.50;;
17570;SDS011;8903;52.220;20.978;2023-06-14T11:48:40;3.90;;;3.40;;
17570;SDS011;8903;52.220;20.978;2023-06-14T11:51:09;6.03;;;3.67;;
17570;SDS011;8903;52.220;20.978;2023-06-14T11:53:36;4.93;;;3.40;;
17570;SDS011;8903;52.220;20.978;2023-06-14T11:56:05;3.47;;;3.17;;
17570;SDS011;8903;52.220;20.978;2023-06-14T11:58:32;4.60;;;3.40;;
17570;SDS011;8903;52.220;20.978;2023-06-14T12:00:59;5.60;;;3.90;;
17570;SDS011;8903;52.220;20.978;2023-06-14T12:03:27;7.30;;;3.53;;
17570;SDS011;8903;52.220;20.978;2023-06-14T12:06:04;4.37;;;3.97;;
17570;SDS011;8903;52.220;20.978;2023-06-14T12:08:33;8.70;;;4.33;;
17570;SDS011;8903;52.220;20.978;2023-06-14T12:11:05;4.90;;;3.63;;
17570;SDS011;8903;52.220;20.978;2023-06-14T12:13:34;7.10;;;2.73;;
17570;SDS011;8903;52.220;20.978;2023-06-14T12:16:04;6.50;;;3.67;;
17570;SDS011;8903;52.220;20.978;2023-06-14T12:18:31;4.00;;;2.80;;
17570;SDS011;8903;52.220;20.978;2023-06-14T12:21:00;4.27;;;3.50;;
17570;SDS011;8903;52.220;20.978;2023-06-14T12:23:38;7.73;;;3.03;;
17570;SDS011;8903;52.220;20.978;2023-06-14T12:26:07;6.77;;;3.27;;
17570;SDS011;8903;52.220;20.978;2023-06-14T12:28:34;5.60;;;3.10;;
17570;SDS011;8903;52.220;20.978;2023-06-14T12:31:01;4.20;;;2.90;;
17570;SDS011;8903;52.220;20.978;2023-06-14T12:33:28;8.67;;;3.20;;
17570;SDS011;8903;52.220;20.978;2023-06-14T12:35:55;7.73;;;3.03;;
17570;SDS011;8903;52.220;20.978;2023-06-14T12:38:23;5.17;;;3.27;;
17570;SDS011;8903;52.220;20.978;2023-06-14T12:40:50;5.57;;;3.90;;
17570;SDS011;8903;52.220;20.978;2023-06-14T12:43:19;2.90;;;2.50;;
17570;SDS011;8903;52.220;20.978;2023-06-14T12:45:46;4.50;;;3.13;;
17570;SDS011;8903;52.220;20.978;2023-06-14T12:48:13;4.63;;;3.70;;
17570;SDS011;8903;52.220;20.978;2023-06-14T12:50:40;3.20;;;2.90;;
17570;SDS011;8903;52.220;20.978;2023-06-14T12:53:07;6.20;;;2.97;;
17570;SDS011;8903;52.220;20.978;2023-06-14T12:55:37;4.13;;;3.77;;
17570;SDS011;8903;52.220;20.978;2023-06-14T12:58:04;5.33;;;3.37;;
17570;SDS011;8903;52.220;20.978;2023-06-14T13:00:33;3.50;;;3.20;;
17570;SDS011;8903;52.220;20.978;2023-06-14T13:03:01;5.93;;;2.80;;
17570;SDS011;8903;52.220;20.978;2023-06-14T13:05:28;2.90;;;2.70;;
17570;SDS011;8903;52.220;20.978;2023-06-14T13:07:56;3.87;;;3.47;;
17570;SDS011;8903;52.220;20.978;2023-06-14T13:10:23;4.07;;;3.40;;
17570;SDS011;8903;52.220;20.978;2023-06-14T13:12:51;7.03;;;2.80;;
17570;SDS011;8903;52.220;20.978;2023-06-14T13:15:18;6.63;;;3.00;;
17570;SDS011;8903;52.220;20.978;2023-06-14T13:17:46;3.60;;;2.23;;
17570;SDS011;8903;52.220;20.978;2023-06-14T13:20:14;4.87;;;2.53;;
17570;SDS011;8903;52.220;20.978;2023-06-14T13:22:42;4.57;;;2.17;;
17570;SDS011;8903;52.220;20.978;2023-06-14T13:25:09;3.40;;;2.60;;
17570;SDS011;8903;52.220;20.978;2023-06-14T13:27:36;5.33;;;2.70;;
17570;SDS011;8903;52.220;20.978;2023-06-14T13:30:03;4.07;;;3.00;;
17570;SDS011;8903;52.220;20.978;2023-06-14T13:32:31;3.63;;;2.87;;
17570;SDS011;8903;52.220;20.978;2023-06-14T13:35:00;3.93;;;2.43;;
17570;SDS011;8903;52.220;20.978;2023-06-14T13:37:27;2.90;;;2.60;;
17570;SDS011;8903;52.220;20.978;2023-06-14T13:39:54;2.33;;;2.23;;
17570;SDS011;8903;52.220;20.978;2023-06-14T13:42:21;4.93;;;2.83;;
17570;SDS011;8903;52.220;20.978;2023-06-14T13:44:48;4.43;;;3.07;;
17570;SDS011;8903;52.220;20.978;2023-06-14T13:47:16;2.93;;;2.70;;
17570;SDS011;8903;52.220;20.978;2023-06-14T13:49:43;3.23;;;2.93;;
17570;SDS011;8903;52.220;20.978;2023-06-14T13:52:12;2.80;;;2.60;;
17570;SDS011;8903;52.220;20.978;2023-06-14T13:54:39;4.57;;;3.07;;
17570;SDS011;8903;52.220;20.978;2023-06-14T13:57:06;3.23;;;2.93;;
17570;SDS011;8903;52.220;20.978;2023-06-14T13:59:34;3.67;;;3.27;;
17570;SDS011;8903;52.220;20.978;2023-06-14T14:02:01;3.37;;;3.10;;
17570;SDS011;8903;52.220;20.978;2023-06-14T14:04:28;3.70;;;3.20;;
17570;SDS011;8903;52.220;20.978;2023-06-14T14:06:55;4.40;;;3.37;;
17570;SDS011;8903;52.220;20.978;2023-06-14T14:09:24;5.37;;;3.90;;
17570;SDS011;8903;52.220;20.978;2023-06-14T14:11:51;4.40;;;3.13;;
17570;SDS011;8903;52.220;20.978;2023-06-14T14:14:18;9.73;;;4.00;;
17570;SDS011;8903;52.220;20.978;2023-06-14T14:16:45;5.70;;;3.67;;
17570;SDS011;8903;52.220;20.978;2023-06-14T14:19:12;3.40;;;2.90;;
17570;SDS011;8903;52.220;20.978;2023-06-14T14:21:39;3.80;;;3.23;;
17570;SDS011;8903;52.220;20.978;2023-06-14T14:24:06;4.37;;;3.10;;
17570;SDS011;8903;52.220;20.978;2023-06-14T14:26:34;4.83;;;3.27;;
17570;SDS011;8903;52.220;20.978;2023-06-14T14:29:01;4.17;;;3.60;;
17570;SDS011;8903;52.220;20.978;2023-06-14T14:31:28;9.80;;;3.60;;
17570;SDS011;8903;52.220;20.978;2023-06-14T14:33:56;9.40;;;3.60;;
17570;SDS011;8903;52.220;20.978;2023-06-14T14:36:23;7.77;;;3.40;;
17570;SDS011;8903;52.220;20.978;2023-06-14T14:38:50;4.70;;;3.10;;
17570;SDS011;8903;52.220;20.978;2023-06-14T14:41:17;4.00;;;2.87;;
17570;SDS011;8903;52.220;20.978;2023-06-14T14:43:46;3.33;;;3.03;;
17570;SDS011;8903;52.220;20.978;2023-06-14T14:46:12;3.00;;;2.77;;
17570;SDS011;8903;52.220;20.978;2023-06-14T14:48:41;4.63;;;3.97;;
17570;SDS011;8903;52.220;20.978;2023-06-14T14:51:08;3.83;;;3.40;;
17570;SDS011;8903;52.220;20.978;2023-06-14T14:53:35;8.23;;;3.57;;